Latest Weather Observations for Moorabbin Airport

IDV60801

Issued at 5:02 pm EDT Thursday 28 January 2021 (issued every 10 minutes, with the page automatically refreshed every 10 minutes)

About weather observations | Map of weather stations | Latest weather observations for VIC | Other Formats
Station Details ID: 086077 Name: MOORABBIN AIRPORT Lat: -37.98 Lon: 145.10 Height: 12.1 m
Data from the previous 72 hours. | See also: Recent months at Moorabbin Airport
Date/Time
EDT
Temp
°C
App
Temp
°C
Dew
Point
°C
Rel
Hum
%
Delta-T
°C
Wind Press
QNH
hPa
Press
MSL
hPa
Rain since
9am
mm
Dir  Spd
km/h
Gust
km/h
Spd
kts
Gust
kts
28/05:00pm 23.1 18.8 14.4 58 5.1 ESE 30 39 16 21 1014.9 1014.9 0.0
28/04:30pm 23.7 19.9 14.7 57 5.3 ESE 28 39 15 21 1014.9 1014.9 0.0
28/04:00pm 23.7 19.7 14.1 55 5.6 ESE 28 37 15 20 1015.2 1015.2 0.0
28/03:30pm 23.8 18.9 14.2 55 5.7 E 33 43 18 23 1015.3 1015.3 0.0
28/03:00pm 24.2 19.9 14.3 54 5.8 E 30 41 16 22 1015.4 1015.4 0.0
28/02:30pm 23.9 18.6 14.3 55 5.7 ESE 35 43 19 23 1015.4 1015.4 0.0
28/02:00pm 23.5 18.1 13.9 55 5.6 ESE 35 44 19 24 1015.5 1015.5 0.0
28/01:30pm 23.7 19.8 14.4 56 5.5 E 28 37 15 20 1016.2 1016.2 0.0
28/01:00pm 23.2 19.3 14.5 58 5.1 ESE 28 37 15 20 1016.5 1016.5 0.0
28/12:30pm 23.7 19.5 14.7 57 5.3 ESE 30 41 16 22 1016.5 1016.5 0.0
28/12:00pm 23.4 19.7 14.9 59 5.0 ESE 28 37 15 20 1016.7 1016.7 0.0
28/11:30am 23.1 18.9 14.7 59 5.0 ESE 30 41 16 22 1017.0 1017.0 0.0
28/11:00am 23.5 20.1 14.8 58 5.2 ESE 26 35 14 19 1016.8 1016.8 0.0
28/10:30am 22.7 18.4 14.5 60 4.8 ESE 30 39 16 21 1016.9 1016.9 0.0
28/10:00am 21.8 17.8 14.2 62 4.4 ESE 28 39 15 21 1017.2 1017.2 0.0
28/09:30am 21.5 17.6 14.4 64 4.2 ESE 28 35 15 19 1017.3 1017.3 0.0
28/09:00am 20.0 15.5 13.9 68 3.5 ESE 30 39 16 21 1017.3 1017.3 0.0
28/08:30am 19.2 15.0 13.6 70 3.2 ESE 28 37 15 20 1017.2 1017.2 0.0
28/08:00am 18.8 15.3 13.4 71 3.1 ESE 24 30 13 16 1016.9 1016.9 0.0
28/07:30am 17.9 14.3 13.0 73 2.7 ESE 24 30 13 16 1016.7 1016.7 0.0
28/07:00am 18.1 15.0 13.4 74 2.7 ESE 22 28 12 15 1016.5 1016.5 0.0
28/06:30am 17.5 13.4 12.6 73 2.7 ESE 26 32 14 17 1016.1 1016.1 0.0
28/06:00am 17.5 12.6 12.6 73 2.7 ESE 30 39 16 21 1015.8 1015.8 0.0
28/05:30am 17.4 12.4 12.3 72 2.8 ESE 30 39 16 21 1015.4 1015.4 0.0
28/05:00am 17.5 12.2 12.6 73 2.7 ESE 32 44 17 24 1015.3 1015.3 0.0
28/04:30am 17.1 11.8 12.4 74 2.6 ESE 32 44 17 24 1015.2 1015.2 0.0
28/04:00am 17.3 11.9 12.8 75 2.5 ESE 33 44 18 24 1015.2 1015.2 0.0
28/03:32am 17.2 11.8 12.7 75 2.5 ESE 33 52 18 28 1015.3 1015.3 0.0
28/03:30am 17.0 11.5 12.5 75 2.5 ESE 33 44 18 24 1015.3 1015.3 0.0
28/03:00am 17.3 12.4 12.6 74 2.6 ESE 30 39 16 21 1015.3 1015.3 0.0
28/02:30am 17.0 12.1 12.5 75 2.5 ESE 30 41 16 22 1015.1 1015.1 0.0
28/02:00am 16.8 11.5 12.5 76 2.4 ESE 32 44 17 24 1015.0 1015.0 0.0
28/01:30am 16.8 11.0 12.7 77 2.3 ESE 35 48 19 26 1015.2 1015.2 0.0
28/01:00am 17.1 10.2 12.8 76 2.4 ESE 41 56 22 30 1015.2 1015.2 0.0
28/12:35am 17.0 10.1 12.9 77 2.3 ESE 41 59 22 32 1014.8 1014.8 0.0
28/12:30am 17.0 9.6 12.9 77 2.3 ESE 44 59 24 32 1014.9 1014.9 0.0
28/12:11am 17.0 10.6 13.1 78 2.2 ESE 39 57 21 31 1015.0 1015.0 0.0
28/12:00am 17.0 10.9 13.1 78 2.2 ESE 37 50 20 27 1015.1 1015.1 0.0
 
Date/Time
EDT
Temp
°C
App
Temp
°C
Dew
Point
°C
Rel
Hum
%
Delta-T
°C
Wind Press
QNH
hPa
Press
MSL
hPa
Rain since
9am
mm
Dir  Spd
km/h
Gust
km/h
Spd
kts
Gust
kts
27/11:30pm 17.3 10.9 13.2 77 2.3 ESE 39 59 21 32 1015.4 1015.4 0.0
27/11:02pm 17.8 10.5 13.3 75 2.5 ESE 44 63 24 34 1015.4 1015.4 0.0
27/11:00pm 17.8 10.5 13.3 75 2.5 ESE 44 59 24 32 1015.4 1015.4 0.0
27/10:30pm 18.2 10.9 13.3 73 2.8 ESE 44 65 24 35 1014.9 1014.9 0.0
27/10:09pm 18.6 11.4 13.2 71 3.1 ESE 43 61 23 33 1015.1 1015.1 0.0
27/10:00pm 18.7 11.6 13.3 71 3.1 ESE 43 57 23 31 1015.0 1015.0 0.0
27/09:30pm 19.3 12.8 13.0 67 3.6 ESE 39 61 21 33 1014.6 1014.6 0.0
27/09:07pm 19.6 12.6 12.6 64 3.9 ESE 41 59 22 32 1014.3 1014.3 0.0
27/09:00pm 19.6 12.9 12.4 63 4.0 ESE 39 52 21 28 1014.2 1014.2 0.0
27/08:30pm 20.5 13.0 12.2 59 4.6 ESE 43 63 23 34 1013.5 1013.5 0.0
27/08:18pm 21.0 13.2 11.9 56 5.1 ESE 44 63 24 34 1013.6 1013.6 0.0
27/08:00pm 21.6 13.9 11.6 53 5.6 ESE 43 59 23 32 1013.6 1013.6 0.0
27/07:33pm 22.8 15.1 11.5 49 6.3 ESE 43 61 23 33 1013.6 1013.6 0.0
27/07:30pm 22.7 14.7 11.1 48 6.4 ESE 44 61 24 33 1013.4 1013.4 0.0
27/07:24pm 22.8 15.0 11.2 48 6.5 ESE 43 61 23 33 1013.3 1013.3 0.0
27/07:00pm 23.8 15.8 10.5 43 7.4 ESE 43 56 23 30 1013.1 1013.1 0.0
27/06:46pm 24.5 17.3 10.4 41 7.8 ESE 39 57 21 31 1012.9 1012.9 0.0
27/06:30pm 24.6 17.4 9.3 38 8.3 ESE 37 54 20 29 1012.8 1012.8 0.0
27/06:00pm 25.0 17.7 8.9 36 8.7 ESE 37 59 20 32 1012.7 1012.7 0.0
27/05:55pm 25.2 18.4 9.1 36 8.7 ESE 35 59 19 32 1012.7 1012.7 0.0
27/05:30pm 25.3 18.4 7.4 32 9.4 ESE 33 50 18 27 1013.1 1013.1 0.0
27/05:07pm 26.0 20.2 9.4 35 9.1 ESE 30 50 16 27 1013.2 1013.2 0.0
27/05:00pm 25.7 19.5 9.5 36 8.9 ESE 32 43 17 23 1013.3 1013.3 0.0
27/04:30pm 25.8 19.2 7.9 32 9.6 ESE 32 43 17 23 1013.7 1013.7 0.0
27/04:00pm 25.6 19.2 8.6 34 9.2 ESE 32 43 17 23 1013.8 1013.8 0.0
27/03:36pm 25.5 20.0 9.3 36 8.8 ESE 28 46 15 25 1014.0 1014.0 0.0
27/03:30pm 25.2 20.9 10.6 40 8.1 SE 24 44 13 24 1014.4 1014.4 0.0
27/03:09pm 24.7 19.5 10.2 40 8.0 SE 28 46 15 25 1014.8 1014.8 0.0
27/03:00pm 24.0 19.8 11.0 44 7.3 SE 24 35 13 19 1014.8 1014.8 0.0
27/02:30pm 24.0 18.8 10.3 42 7.6 ESE 28 35 15 19 1015.1 1015.1 0.0
27/02:00pm 22.5 17.4 9.3 43 7.1 SE 26 39 14 21 1015.3 1015.3 0.0
27/01:30pm 22.3 18.5 9.8 45 6.8 SE 20 35 11 19 1015.4 1015.4 0.0
27/01:00pm 21.3 17.5 9.2 46 6.4 SE 19 32 10 17 1015.6 1015.6 0.0
27/12:30pm 20.2 15.8 8.8 48 6.0 SE 22 32 12 17 1015.9 1015.9 0.0
27/12:00pm 19.7 15.7 8.4 48 5.9 SSE 19 33 10 18 1016.4 1016.4 0.0
27/11:30am 18.7 15.4 8.1 50 5.4 SSE 15 28 8 15 1016.7 1016.7 0.0
27/11:00am 18.2 13.9 7.9 51 5.2 SSE 20 30 11 16 1016.4 1016.4 0.0
27/10:30am 18.1 13.5 8.1 52 5.1 SE 22 32 12 17 1016.4 1016.4 0.0
27/10:00am 17.2 12.9 7.8 54 4.7 SSE 20 26 11 14 1016.6 1016.6 0.0
27/09:30am 16.3 11.2 7.5 56 4.4 SSE 24 32 13 17 1016.4 1016.4 0.0
27/09:00am 15.6 10.0 7.1 57 4.2 SSE 26 33 14 18 1016.5 1016.5 0.0
27/08:30am 15.3 10.4 6.8 57 4.2 SSE 22 30 12 16 1016.3 1016.3 0.0
27/08:00am 15.0 11.5 7.3 60 3.8 SSE 15 20 8 11 1016.2 1016.2 0.0
27/07:30am 14.6 10.7 6.9 60 3.8 SSE 17 22 9 12 1015.7 1015.7 0.0
27/07:00am 14.4 11.2 6.7 60 3.7 SSE 13 19 7 10 1015.6 1015.6 0.0
27/06:30am 14.0 9.6 6.4 60 3.7 SSE 19 24 10 13 1015.1 1015.1 0.0
27/06:00am 14.1 10.5 6.9 62 3.5 SSE 15 22 8 12 1014.6 1014.6 0.0
27/05:30am 14.1 10.1 6.7 61 3.6 SSE 17 26 9 14 1014.1 1014.1 0.0
27/05:00am 14.0 9.7 6.8 62 3.5 SE 19 28 10 15 1013.9 1013.9 0.0
27/04:30am 14.0 10.5 7.1 63 3.4 SSE 15 20 8 11 1013.7 1013.7 0.0
27/04:00am 14.1 10.5 6.9 62 3.5 SSE 15 20 8 11 1013.5 1013.5 0.0
27/03:30am 13.8 9.9 6.9 63 3.3 SSE 17 24 9 13 1013.6 1013.6 0.0
27/03:00am 13.6 10.4 6.9 64 3.2 SSE 13 17 7 9 1013.8 1013.8 0.0
27/02:30am 13.7 10.6 7.2 65 3.2 SSE 13 20 7 11 1013.6 1013.6 0.0
27/02:00am 12.8 9.6 6.8 67 2.9 SSE 13 19 7 10 1013.4 1013.4 0.0
27/01:30am 13.3 9.4 7.3 67 2.9 SSE 17 24 9 13 1013.2 1013.2 0.0
27/01:00am 13.5 9.2 6.8 64 3.2 SSE 19 26 10 14 1013.2 1013.2 0.0
27/12:30am 14.3 10.2 8.0 66 3.1 SSE 19 26 10 14 1013.1 1013.1 0.0
27/12:00am 14.2 10.7 8.6 69 2.8 SSE 17 24 9 13 1012.8 1012.8 0.0
 
Date/Time
EDT
Temp
°C
App
Temp
°C
Dew
Point
°C
Rel
Hum
%
Delta-T
°C
Wind Press
QNH
hPa
Press
MSL
hPa
Rain since
9am
mm
Dir  Spd
km/h
Gust
km/h
Spd
kts
Gust
kts
26/11:30pm 14.2 10.7 8.8 70 2.7 SSE 17 26 9 14 1012.5 1012.5 0.0
26/11:00pm 14.6 10.3 9.2 70 2.8 SSE 22 32 12 17 1012.2 1012.2 0.0
26/10:30pm 15.0 10.8 9.8 71 2.7 S 22 32 12 17 1012.1 1012.1 0.0
26/10:00pm 15.1 12.0 10.3 73 2.5 SSE 17 24 9 13 1011.8 1011.8 0.0
26/09:30pm 15.6 12.1 10.8 73 2.5 SSE 20 28 11 15 1011.3 1011.3 0.0
26/09:00pm 15.9 12.3 10.7 71 2.8 SSE 20 28 11 15 1010.7 1010.7 0.0
26/08:30pm 16.6 12.8 11.3 71 2.9 S 22 32 12 17 1010.1 1010.1 0.0
26/08:00pm 17.1 13.0 11.6 70 3.0 S 24 32 13 17 1009.4 1009.4 0.0
26/07:30pm 18.4 14.2 12.4 68 3.3 S 26 35 14 19 1008.7 1008.7 0.0
26/07:00pm 19.3 15.4 12.1 63 4.0 SSW 24 32 13 17 1008.0 1008.0 0.0
26/06:30pm 19.2 15.4 12.5 65 3.7 SSW 24 33 13 18 1007.7 1007.7 0.0
26/06:00pm 20.1 17.1 12.6 62 4.2 SSW 20 30 11 16 1007.3 1007.3 0.0
26/05:30pm 20.1 16.0 11.6 58 4.7 SSW 24 32 13 17 1007.1 1007.1 0.0
26/05:00pm 19.1 15.6 12.1 64 3.9 SSW 22 30 12 16 1007.0 1007.0 0.0
26/04:30pm 18.9 14.9 11.7 63 4.0 SSW 24 32 13 17 1006.6 1006.6 0.0
26/04:00pm 19.0 15.3 12.7 67 3.5 SSW 24 33 13 18 1006.4 1006.4 0.0
26/03:30pm 19.1 15.5 13.1 68 3.4 SSW 24 32 13 17 1006.2 1006.2 0.0
26/03:00pm 18.4 14.3 12.8 70 3.1 SSW 26 35 14 19 1006.1 1006.1 0.0
26/02:30pm 18.2 13.4 14.1 77 2.3 SSW 32 43 17 23 1005.9 1005.9 0.0
26/02:00pm 19.3 16.2 13.3 68 3.4 S 22 28 12 15 1005.9 1005.9 0.0
26/01:30pm 18.1 14.4 13.8 76 2.5 SSW 26 33 14 18 1005.5 1005.5 0.0
26/01:00pm 18.7 15.6 14.4 76 2.5 SSW 24 35 13 19 1005.1 1005.1 0.0
26/12:30pm 18.5 15.4 14.4 77 2.4 SSW 24 32 13 17 1004.6 1004.6 0.0
26/12:00pm 18.1 14.8 15.0 82 1.8 SSW 26 37 14 20 1004.3 1004.3 0.0
26/11:32am 18.4 16.5 16.6 89 1.1 SSW 22 32 12 17 1003.8 1003.8 0.0
26/11:30am 18.2 16.2 16.4 89 1.1 SSW 22 32 12 17 1003.8 1003.8 0.0
26/11:21am 18.2 16.3 16.7 91 0.9 SSW 22 32 12 17 1003.7 1003.7 0.0
26/11:05am 18.1 16.5 16.6 91 0.9 SSW 20 28 11 15 1003.6 1003.6 0.0
26/11:00am 17.9 16.4 16.8 93 0.7 SSW 20 28 11 15 1003.6 1003.6 0.0
26/10:51am 18.1 16.5 16.6 91 0.9 SSW 20 32 11 17 1003.6 1003.6 0.0
26/10:39am 18.2 16.6 16.5 90 1.0 SSW 20 28 11 15 1003.5 1003.5 0.0
26/10:30am 18.2 16.9 16.7 91 0.9 SSW 19 28 10 15 1003.4 1003.4 0.0
26/10:28am 18.5 17.4 17.2 92 0.8 SSW 19 26 10 14 1003.4 1003.4 0.0
26/10:21am 18.4 17.1 17.2 93 0.7 SSW 20 30 11 16 1003.4 1003.4 0.0
26/10:03am 18.2 17.4 18.0 99 0.1 SSW 19 26 10 14 1003.1 1003.1 0.0
26/10:00am 18.1 17.3 18.1 100 0.0 SSW 19 26 10 14 1003.0 1003.0 0.0
26/09:52am 18.1 17.7 18.1 100 0.0 SSW 17 26 9 14 1003.0 1003.0 0.0
26/09:30am 17.8 16.3 17.8 100 0.0 SSW 22 32 12 17 1002.6 1002.6 0.0
26/09:19am 17.8 16.3 17.8 100 0.0 SSW 22 32 12 17 1002.4 1002.4 0.0
26/09:00am 17.8 16.3 17.8 100 0.0 SSW 22 30 12 16 1002.2 1002.2 6.0
26/08:54am 17.9 17.1 17.9 100 0.0 SSW 19 30 10 16 1002.2 1002.2 5.8
26/08:53am 17.9 17.1 17.9 100 0.0 SSW 19 30 10 16 1002.2 1002.2 5.8
26/08:30am 18.1 17.7 18.1 100 0.0 SSW 17 26 9 14 1001.8 1001.8 5.6
26/08:16am 18.1 17.3 18.1 100 0.0 S 19 26 10 14 1001.5 1001.5 5.4
26/08:00am 18.0 17.2 18.0 100 0.0 SSW 19 26 10 14 1001.1 1001.1 5.2
26/07:32am 18.3 18.4 18.3 100 0.0 SSW 15 19 8 10 1000.5 1000.5 5.0
26/07:30am 18.3 18.8 18.3 100 0.0 SSW 13 19 7 10 1000.5 1000.5 5.0
26/07:11am 18.5 17.7 18.5 100 0.0 SSW 20 28 11 15 999.9 999.9 4.4
26/07:10am 18.5 17.7 18.5 100 0.0 SSW 20 28 11 15 999.9 999.9 4.0
26/07:00am 18.5 17.9 18.5 100 0.0 SSW 19 26 10 14 999.9 999.9 3.6
26/06:30am 18.9 18.9 18.9 100 0.0 SSW 17 24 9 13 999.2 999.2 2.8
26/06:29am 19.0 19.0 19.0 100 0.0 SSW 17 28 9 15 999.2 999.2 2.8
26/06:17am 19.1 17.8 19.1 100 0.0 SW 24 33 13 18 998.8 998.8 2.6
26/06:00am 19.6 20.2 19.4 99 0.1 SW 15 22 8 12 998.5 998.5 2.4
26/05:56am 19.6 19.8 19.3 98 0.2 SW 17 22 9 12 998.4 998.4 2.0
26/05:53am 19.7 19.9 19.4 98 0.2 SW 17 22 9 12 998.3 998.3 1.2
26/05:30am 19.5 19.0 18.7 95 0.5 SSW 19 32 10 17 997.6 997.6 0.2
26/05:00am 21.1 22.9 18.7 86 1.5 SW 7 11 4 6 997.1 997.1 0.2
26/04:30am 21.2 22.5 18.4 84 1.7 W 9 9 5 5 996.6 996.6 0.2
26/04:00am 21.3 22.8 17.7 80 2.2 N 6 11 3 6 996.5 996.5 0.2
26/03:30am 21.7 22.6 17.5 77 2.6 NNW 9 11 5 6 997.1 997.1 0.0
26/03:00am 21.1 23.7 17.5 80 2.2 CALM 0 0 0 0 997.3 997.3 0.0
26/02:30am 21.2 22.5 17.6 80 2.2 NNE 7 9 4 5 997.6 997.6 0.0
26/02:00am 21.0 21.6 17.8 82 2.0 NNE 11 17 6 9 997.8 997.8 0.0
26/01:30am 20.9 21.9 17.7 82 2.0 NNW 9 11 5 6 999.1 999.1 0.0
26/01:00am 21.2 21.2 18.0 82 2.0 N 15 22 8 12 998.9 998.9 0.0
26/12:30am 20.5 20.9 19.0 91 0.9 N 15 17 8 9 998.8 998.8 0.0
26/12:00am 20.5 21.6 18.8 90 1.1 NNW 11 17 6 9 999.1 999.1 0.0
 
Date/Time
EDT
Temp
°C
App
Temp
°C
Dew
Point
°C
Rel
Hum
%
Delta-T
°C
Wind Press
QNH
hPa
Press
MSL
hPa
Rain since
9am
mm
Dir  Spd
km/h
Gust
km/h
Spd
kts
Gust
kts
25/11:30pm 20.4 21.8 18.7 90 1.1 NNE 9 13 5 7 999.4 999.4 0.0
25/11:00pm 20.2 22.0 18.3 89 1.2 NE 6 9 3 5 1000.4 1000.4 0.0
25/10:30pm 20.1 20.9 18.1 88 1.2 SSE 11 17 6 9 1000.4 1000.4 0.0
25/10:00pm 20.2 20.2 18.1 88 1.3 SW 15 19 8 10 1000.9 1000.9 0.0
25/09:30pm 20.4 19.4 18.0 86 1.5 SSW 20 32 11 17 1000.0 1000.0 0.0
25/09:00pm 20.7 18.1 17.9 84 1.7 SW 28 33 15 18 1000.4 1000.4 0.0
25/08:30pm 21.6 21.2 18.0 80 2.2 SW 17 22 9 12 999.4 999.4 0.0
25/08:00pm 21.6 21.4 17.6 78 2.5 SSW 15 17 8 9 998.4 998.4 0.0
25/07:30pm 22.0 21.4 17.6 76 2.7 SSW 17 20 9 11 998.5 998.5 0.0
25/07:00pm 22.6 21.5 17.3 72 3.3 SSW 19 26 10 14 998.6 998.6 0.0
25/06:30pm 23.5 23.3 17.7 70 3.6 SW 15 20 8 11 998.5 998.5 0.0
25/06:00pm 23.5 23.6 17.5 69 3.7 SW 13 19 7 10 999.1 999.1 0.0
25/05:30pm 23.8 22.8 18.0 70 3.6 SSW 20 28 11 15 998.8 998.8 0.0
25/05:02pm 23.2 20.1 17.4 70 3.6 SW 30 48 16 26 999.2 999.2 0.0

Other formats

Comma delimited format used in spreadsheet applications
http://www.bom.gov.au/fwo/IDV60801/IDV60801.94870.axf

JavaScript Object Notation format (JSON) in row-major order
http://www.bom.gov.au/fwo/IDV60801/IDV60801.94870.json

Data quality

Most of these data are generated automatically and are frequently updated. Quality checks on data are not normally performed. It is possible for incorrect values to appear. Refer to information at About Latest Weather Observations and please check the disclaimer before using these data.